sensor_id;sensor_type;location;lat;lon;timestamp;P1;durP1;ratioP1;P2;durP2;ratioP2
15848;SDS011;8024;48.708;9.394;2022-12-24T00:01:37;2.97;;;0.93;;
15848;SDS011;8024;48.708;9.394;2022-12-24T00:04:06;3.03;;;0.47;;
15848;SDS011;8024;48.708;9.394;2022-12-24T00:06:33;1.37;;;0.60;;
15848;SDS011;8024;48.708;9.394;2022-12-24T00:09:01;2.30;;;0.73;;
15848;SDS011;8024;48.708;9.394;2022-12-24T00:11:29;4.97;;;0.90;;
15848;SDS011;8024;48.708;9.394;2022-12-24T00:13:56;1.67;;;0.53;;
15848;SDS011;8024;48.708;9.394;2022-12-24T00:16:23;3.17;;;0.80;;
15848;SDS011;8024;48.708;9.394;2022-12-24T00:18:51;2.97;;;0.60;;
15848;SDS011;8024;48.708;9.394;2022-12-24T00:21:19;1.33;;;0.40;;
15848;SDS011;8024;48.708;9.394;2022-12-24T00:23:46;2.60;;;0.80;;
15848;SDS011;8024;48.708;9.394;2022-12-24T00:26:13;1.40;;;0.60;;
15848;SDS011;8024;48.708;9.394;2022-12-24T00:28:41;1.90;;;0.60;;
15848;SDS011;8024;48.708;9.394;2022-12-24T00:31:09;1.43;;;0.50;;
15848;SDS011;8024;48.708;9.394;2022-12-24T00:33:37;1.57;;;0.93;;
15848;SDS011;8024;48.708;9.394;2022-12-24T00:36:04;2.60;;;0.80;;
15848;SDS011;8024;48.708;9.394;2022-12-24T00:38:33;2.37;;;0.60;;
15848;SDS011;8024;48.708;9.394;2022-12-24T00:41:01;1.90;;;0.60;;
15848;SDS011;8024;48.708;9.394;2022-12-24T00:43:29;3.27;;;1.13;;
15848;SDS011;8024;48.708;9.394;2022-12-24T00:45:57;3.97;;;0.93;;
15848;SDS011;8024;48.708;9.394;2022-12-24T00:48:24;2.60;;;0.90;;
15848;SDS011;8024;48.708;9.394;2022-12-24T00:50:51;3.10;;;0.70;;
15848;SDS011;8024;48.708;9.394;2022-12-24T00:53:18;1.43;;;0.50;;
15848;SDS011;8024;48.708;9.394;2022-12-24T00:55:47;2.20;;;0.80;;
15848;SDS011;8024;48.708;9.394;2022-12-24T00:58:14;5.50;;;0.50;;
15848;SDS011;8024;48.708;9.394;2022-12-24T01:00:41;4.03;;;0.77;;
15848;SDS011;8024;48.708;9.394;2022-12-24T01:03:08;3.43;;;0.70;;
15848;SDS011;8024;48.708;9.394;2022-12-24T01:05:35;4.00;;;0.83;;
15848;SDS011;8024;48.708;9.394;2022-12-24T01:08:02;2.17;;;0.90;;
15848;SDS011;8024;48.708;9.394;2022-12-24T01:10:29;2.63;;;0.50;;
15848;SDS011;8024;48.708;9.394;2022-12-24T01:12:57;5.57;;;0.70;;
15848;SDS011;8024;48.708;9.394;2022-12-24T01:15:27;2.33;;;0.53;;
15848;SDS011;8024;48.708;9.394;2022-12-24T01:17:54;3.60;;;0.73;;
15848;SDS011;8024;48.708;9.394;2022-12-24T01:20:22;3.17;;;1.03;;
15848;SDS011;8024;48.708;9.394;2022-12-24T01:22:51;1.70;;;0.70;;
15848;SDS011;8024;48.708;9.394;2022-12-24T01:25:18;3.90;;;1.80;;
15848;SDS011;8024;48.708;9.394;2022-12-24T01:27:45;1.70;;;0.87;;
15848;SDS011;8024;48.708;9.394;2022-12-24T01:30:13;1.23;;;0.40;;
15848;SDS011;8024;48.708;9.394;2022-12-24T01:32:41;3.13;;;0.70;;
15848;SDS011;8024;48.708;9.394;2022-12-24T01:35:08;2.53;;;0.70;;
15848;SDS011;8024;48.708;9.394;2022-12-24T01:37:36;1.00;;;0.60;;
15848;SDS011;8024;48.708;9.394;2022-12-24T01:40:03;1.60;;;0.87;;
15848;SDS011;8024;48.708;9.394;2022-12-24T01:42:50;1.83;;;0.70;;
15848;SDS011;8024;48.708;9.394;2022-12-24T01:45:42;2.83;;;0.60;;
15848;SDS011;8024;48.708;9.394;2022-12-24T01:48:16;2.87;;;0.60;;
15848;SDS011;8024;48.708;9.394;2022-12-24T01:50:47;2.57;;;1.40;;
15848;SDS011;8024;48.708;9.394;2022-12-24T01:53:15;3.77;;;0.90;;
15848;SDS011;8024;48.708;9.394;2022-12-24T01:55:43;2.10;;;0.50;;
15848;SDS011;8024;48.708;9.394;2022-12-24T01:58:12;3.40;;;0.87;;
15848;SDS011;8024;48.708;9.394;2022-12-24T02:00:42;2.43;;;0.63;;
15848;SDS011;8024;48.708;9.394;2022-12-24T02:03:09;3.63;;;0.70;;
15848;SDS011;8024;48.708;9.394;2022-12-24T02:05:39;4.37;;;0.80;;
15848;SDS011;8024;48.708;9.394;2022-12-24T02:08:11;5.47;;;1.83;;
15848;SDS011;8024;48.708;9.394;2022-12-24T02:10:39;2.60;;;1.20;;
15848;SDS011;8024;48.708;9.394;2022-12-24T02:13:06;4.33;;;1.20;;
15848;SDS011;8024;48.708;9.394;2022-12-24T02:15:36;5.17;;;0.90;;
15848;SDS011;8024;48.708;9.394;2022-12-24T02:18:16;5.17;;;1.50;;
15848;SDS011;8024;48.708;9.394;2022-12-24T02:20:55;2.97;;;0.67;;
15848;SDS011;8024;48.708;9.394;2022-12-24T02:24:01;4.13;;;0.83;;
15848;SDS011;8024;48.708;9.394;2022-12-24T02:27:06;3.50;;;0.70;;
15848;SDS011;8024;48.708;9.394;2022-12-24T02:29:51;5.57;;;0.87;;
15848;SDS011;8024;48.708;9.394;2022-12-24T02:32:27;4.47;;;0.63;;
15848;SDS011;8024;48.708;9.394;2022-12-24T02:35:01;2.40;;;0.90;;
15848;SDS011;8024;48.708;9.394;2022-12-24T02:37:34;5.40;;;1.03;;
15848;SDS011;8024;48.708;9.394;2022-12-24T02:40:05;4.60;;;0.93;;
15848;SDS011;8024;48.708;9.394;2022-12-24T02:42:38;3.40;;;1.10;;
15848;SDS011;8024;48.708;9.394;2022-12-24T02:45:09;5.83;;;1.20;;
15848;SDS011;8024;48.708;9.394;2022-12-24T02:47:39;2.93;;;1.53;;
15848;SDS011;8024;48.708;9.394;2022-12-24T02:50:09;2.20;;;1.00;;
15848;SDS011;8024;48.708;9.394;2022-12-24T02:52:39;4.40;;;0.93;;
15848;SDS011;8024;48.708;9.394;2022-12-24T02:55:10;4.73;;;0.87;;
15848;SDS011;8024;48.708;9.394;2022-12-24T02:57:42;3.23;;;0.70;;
15848;SDS011;8024;48.708;9.394;2022-12-24T03:00:23;3.40;;;1.20;;
15848;SDS011;8024;48.708;9.394;2022-12-24T03:03:00;4.60;;;1.00;;
15848;SDS011;8024;48.708;9.394;2022-12-24T03:05:37;3.23;;;0.70;;
15848;SDS011;8024;48.708;9.394;2022-12-24T03:08:11;4.03;;;0.90;;
15848;SDS011;8024;48.708;9.394;2022-12-24T03:10:42;6.67;;;1.03;;
15848;SDS011;8024;48.708;9.394;2022-12-24T03:13:17;4.90;;;0.97;;
15848;SDS011;8024;48.708;9.394;2022-12-24T03:15:47;4.70;;;1.17;;
15848;SDS011;8024;48.708;9.394;2022-12-24T03:18:17;5.10;;;0.97;;
15848;SDS011;8024;48.708;9.394;2022-12-24T03:20:47;4.17;;;0.83;;
15848;SDS011;8024;48.708;9.394;2022-12-24T03:23:19;3.23;;;0.80;;
15848;SDS011;8024;48.708;9.394;2022-12-24T03:25:46;2.93;;;0.97;;
15848;SDS011;8024;48.708;9.394;2022-12-24T03:28:14;2.57;;;1.00;;
15848;SDS011;8024;48.708;9.394;2022-12-24T03:30:43;2.73;;;1.20;;
15848;SDS011;8024;48.708;9.394;2022-12-24T03:33:13;5.13;;;1.63;;
15848;SDS011;8024;48.708;9.394;2022-12-24T03:35:40;3.87;;;1.10;;
15848;SDS011;8024;48.708;9.394;2022-12-24T03:38:08;5.93;;;1.40;;
15848;SDS011;8024;48.708;9.394;2022-12-24T03:40:35;3.23;;;1.23;;
15848;SDS011;8024;48.708;9.394;2022-12-24T03:43:02;5.80;;;0.97;;
15848;SDS011;8024;48.708;9.394;2022-12-24T03:45:29;4.80;;;1.43;;
15848;SDS011;8024;48.708;9.394;2022-12-24T03:47:58;4.23;;;1.07;;
15848;SDS011;8024;48.708;9.394;2022-12-24T03:50:25;6.00;;;1.20;;
15848;SDS011;8024;48.708;9.394;2022-12-24T03:52:52;4.33;;;1.10;;
15848;SDS011;8024;48.708;9.394;2022-12-24T03:55:20;4.00;;;0.80;;
15848;SDS011;8024;48.708;9.394;2022-12-24T03:57:47;4.73;;;1.30;;
15848;SDS011;8024;48.708;9.394;2022-12-24T04:00:14;3.07;;;0.97;;
15848;SDS011;8024;48.708;9.394;2022-12-24T04:02:42;3.20;;;1.10;;
15848;SDS011;8024;48.708;9.394;2022-12-24T04:05:13;4.77;;;0.90;;
15848;SDS011;8024;48.708;9.394;2022-12-24T04:07:42;2.13;;;0.60;;
15848;SDS011;8024;48.708;9.394;2022-12-24T04:10:09;3.50;;;0.87;;
15848;SDS011;8024;48.708;9.394;2022-12-24T04:12:37;5.70;;;1.07;;
15848;SDS011;8024;48.708;9.394;2022-12-24T04:15:05;3.80;;;0.80;;
15848;SDS011;8024;48.708;9.394;2022-12-24T04:17:33;7.00;;;1.07;;
15848;SDS011;8024;48.708;9.394;2022-12-24T04:20:00;3.43;;;0.93;;
15848;SDS011;8024;48.708;9.394;2022-12-24T04:22:29;9.43;;;1.33;;
15848;SDS011;8024;48.708;9.394;2022-12-24T04:24:57;4.63;;;0.93;;
15848;SDS011;8024;48.708;9.394;2022-12-24T04:27:24;4.90;;;1.40;;
15848;SDS011;8024;48.708;9.394;2022-12-24T04:29:51;4.53;;;1.07;;
15848;SDS011;8024;48.708;9.394;2022-12-24T04:32:18;5.23;;;1.47;;
15848;SDS011;8024;48.708;9.394;2022-12-24T04:34:45;5.10;;;1.17;;
15848;SDS011;8024;48.708;9.394;2022-12-24T04:37:12;5.97;;;1.10;;
15848;SDS011;8024;48.708;9.394;2022-12-24T04:39:41;4.53;;;1.87;;
15848;SDS011;8024;48.708;9.394;2022-12-24T04:42:08;3.00;;;1.03;;
15848;SDS011;8024;48.708;9.394;2022-12-24T04:44:35;3.97;;;0.90;;
15848;SDS011;8024;48.708;9.394;2022-12-24T04:47:02;7.00;;;1.23;;
15848;SDS011;8024;48.708;9.394;2022-12-24T04:49:29;5.70;;;1.20;;
15848;SDS011;8024;48.708;9.394;2022-12-24T04:51:56;9.13;;;1.83;;
15848;SDS011;8024;48.708;9.394;2022-12-24T04:54:24;3.67;;;1.10;;
15848;SDS011;8024;48.708;9.394;2022-12-24T04:56:52;4.60;;;1.33;;
15848;SDS011;8024;48.708;9.394;2022-12-24T04:59:19;2.57;;;0.80;;
15848;SDS011;8024;48.708;9.394;2022-12-24T05:01:46;3.27;;;0.90;;
15848;SDS011;8024;48.708;9.394;2022-12-24T05:04:14;3.50;;;1.07;;
15848;SDS011;8024;48.708;9.394;2022-12-24T05:06:41;6.13;;;1.20;;
15848;SDS011;8024;48.708;9.394;2022-12-24T05:09:08;7.03;;;1.47;;
15848;SDS011;8024;48.708;9.394;2022-12-24T05:11:35;3.33;;;1.27;;
15848;SDS011;8024;48.708;9.394;2022-12-24T05:14:03;5.07;;;1.00;;
15848;SDS011;8024;48.708;9.394;2022-12-24T05:16:30;4.03;;;1.20;;
15848;SDS011;8024;48.708;9.394;2022-12-24T05:18:58;8.43;;;0.90;;
15848;SDS011;8024;48.708;9.394;2022-12-24T05:21:25;3.90;;;1.00;;
15848;SDS011;8024;48.708;9.394;2022-12-24T05:23:52;2.77;;;1.90;;
15848;SDS011;8024;48.708;9.394;2022-12-24T05:26:38;5.07;;;1.27;;
15848;SDS011;8024;48.708;9.394;2022-12-24T05:29:08;4.27;;;1.10;;
15848;SDS011;8024;48.708;9.394;2022-12-24T05:31:37;3.90;;;1.07;;
15848;SDS011;8024;48.708;9.394;2022-12-24T05:34:05;4.17;;;1.00;;
15848;SDS011;8024;48.708;9.394;2022-12-24T05:36:33;3.73;;;0.93;;
15848;SDS011;8024;48.708;9.394;2022-12-24T05:39:00;3.73;;;1.00;;
15848;SDS011;8024;48.708;9.394;2022-12-24T05:41:27;6.90;;;1.20;;
15848;SDS011;8024;48.708;9.394;2022-12-24T05:43:55;3.30;;;1.00;;
15848;SDS011;8024;48.708;9.394;2022-12-24T05:46:23;6.07;;;1.57;;
15848;SDS011;8024;48.708;9.394;2022-12-24T05:48:51;7.73;;;1.23;;
15848;SDS011;8024;48.708;9.394;2022-12-24T05:51:20;6.00;;;1.20;;
15848;SDS011;8024;48.708;9.394;2022-12-24T05:53:48;4.73;;;1.00;;
15848;SDS011;8024;48.708;9.394;2022-12-24T05:56:17;3.00;;;1.10;;
15848;SDS011;8024;48.708;9.394;2022-12-24T05:58:45;2.90;;;0.93;;
15848;SDS011;8024;48.708;9.394;2022-12-24T06:01:13;2.77;;;0.80;;
15848;SDS011;8024;48.708;9.394;2022-12-24T06:03:42;2.90;;;0.90;;
15848;SDS011;8024;48.708;9.394;2022-12-24T06:06:10;2.67;;;0.70;;
15848;SDS011;8024;48.708;9.394;2022-12-24T06:08:39;6.13;;;1.00;;
15848;SDS011;8024;48.708;9.394;2022-12-24T06:11:07;3.03;;;1.17;;
15848;SDS011;8024;48.708;9.394;2022-12-24T06:13:36;2.83;;;1.43;;
15848;SDS011;8024;48.708;9.394;2022-12-24T06:16:04;3.33;;;1.27;;
15848;SDS011;8024;48.708;9.394;2022-12-24T06:18:33;6.20;;;1.63;;
15848;SDS011;8024;48.708;9.394;2022-12-24T06:21:03;4.47;;;1.20;;
15848;SDS011;8024;48.708;9.394;2022-12-24T06:23:32;3.50;;;1.30;;
15848;SDS011;8024;48.708;9.394;2022-12-24T06:26:00;4.87;;;1.10;;
15848;SDS011;8024;48.708;9.394;2022-12-24T06:28:28;4.77;;;1.50;;
15848;SDS011;8024;48.708;9.394;2022-12-24T06:30:57;3.53;;;0.97;;
15848;SDS011;8024;48.708;9.394;2022-12-24T06:33:26;4.93;;;1.23;;
15848;SDS011;8024;48.708;9.394;2022-12-24T06:35:53;6.53;;;1.33;;
15848;SDS011;8024;48.708;9.394;2022-12-24T06:38:22;4.13;;;0.83;;
15848;SDS011;8024;48.708;9.394;2022-12-24T06:40:49;3.90;;;1.37;;
15848;SDS011;8024;48.708;9.394;2022-12-24T06:43:16;2.63;;;1.10;;
15848;SDS011;8024;48.708;9.394;2022-12-24T06:45:44;3.33;;;0.90;;
15848;SDS011;8024;48.708;9.394;2022-12-24T06:48:12;5.07;;;1.30;;
15848;SDS011;8024;48.708;9.394;2022-12-24T06:50:40;2.27;;;0.97;;
15848;SDS011;8024;48.708;9.394;2022-12-24T06:53:08;4.00;;;1.60;;
15848;SDS011;8024;48.708;9.394;2022-12-24T06:55:36;3.77;;;1.10;;
15848;SDS011;8024;48.708;9.394;2022-12-24T06:58:04;3.33;;;1.07;;
15848;SDS011;8024;48.708;9.394;2022-12-24T07:00:31;5.03;;;1.20;;
15848;SDS011;8024;48.708;9.394;2022-12-24T07:02:58;2.27;;;0.83;;
15848;SDS011;8024;48.708;9.394;2022-12-24T07:05:25;4.87;;;0.87;;
15848;SDS011;8024;48.708;9.394;2022-12-24T07:07:53;3.73;;;1.00;;
15848;SDS011;8024;48.708;9.394;2022-12-24T07:10:21;6.53;;;1.43;;
15848;SDS011;8024;48.708;9.394;2022-12-24T07:12:49;3.30;;;0.80;;
15848;SDS011;8024;48.708;9.394;2022-12-24T07:15:16;4.23;;;1.10;;
15848;SDS011;8024;48.708;9.394;2022-12-24T07:17:43;3.00;;;1.50;;
15848;SDS011;8024;48.708;9.394;2022-12-24T07:20:11;2.87;;;0.90;;
15848;SDS011;8024;48.708;9.394;2022-12-24T07:22:39;2.83;;;0.90;;
15848;SDS011;8024;48.708;9.394;2022-12-24T07:25:07;4.70;;;1.20;;
15848;SDS011;8024;48.708;9.394;2022-12-24T07:27:35;3.03;;;0.90;;
15848;SDS011;8024;48.708;9.394;2022-12-24T07:30:05;3.00;;;1.20;;
15848;SDS011;8024;48.708;9.394;2022-12-24T07:32:33;1.90;;;1.13;;
15848;SDS011;8024;48.708;9.394;2022-12-24T07:35:00;3.17;;;1.03;;
15848;SDS011;8024;48.708;9.394;2022-12-24T07:37:28;3.17;;;1.07;;
15848;SDS011;8024;48.708;9.394;2022-12-24T07:39:55;5.10;;;2.33;;
15848;SDS011;8024;48.708;9.394;2022-12-24T07:42:22;6.40;;;1.03;;
15848;SDS011;8024;48.708;9.394;2022-12-24T07:44:49;2.93;;;1.03;;
15848;SDS011;8024;48.708;9.394;2022-12-24T07:47:18;5.67;;;1.17;;
15848;SDS011;8024;48.708;9.394;2022-12-24T07:49:45;4.63;;;1.13;;
15848;SDS011;8024;48.708;9.394;2022-12-24T07:52:12;7.67;;;4.20;;
15848;SDS011;8024;48.708;9.394;2022-12-24T07:54:39;5.53;;;2.40;;
15848;SDS011;8024;48.708;9.394;2022-12-24T07:57:06;5.03;;;1.73;;
15848;SDS011;8024;48.708;9.394;2022-12-24T07:59:34;7.57;;;1.57;;
15848;SDS011;8024;48.708;9.394;2022-12-24T08:02:02;3.83;;;1.00;;
15848;SDS011;8024;48.708;9.394;2022-12-24T08:04:31;4.77;;;1.00;;
15848;SDS011;8024;48.708;9.394;2022-12-24T08:07:00;3.20;;;1.07;;
15848;SDS011;8024;48.708;9.394;2022-12-24T08:09:29;2.10;;;1.57;;
15848;SDS011;8024;48.708;9.394;2022-12-24T08:11:56;3.90;;;1.37;;
15848;SDS011;8024;48.708;9.394;2022-12-24T08:14:24;4.27;;;1.37;;
15848;SDS011;8024;48.708;9.394;2022-12-24T08:16:51;5.77;;;1.50;;
15848;SDS011;8024;48.708;9.394;2022-12-24T08:19:18;2.63;;;1.20;;
15848;SDS011;8024;48.708;9.394;2022-12-24T08:21:46;4.33;;;1.70;;
15848;SDS011;8024;48.708;9.394;2022-12-24T08:24:13;4.53;;;2.53;;
15848;SDS011;8024;48.708;9.394;2022-12-24T08:26:41;5.43;;;2.30;;
15848;SDS011;8024;48.708;9.394;2022-12-24T08:29:08;6.77;;;3.40;;
15848;SDS011;8024;48.708;9.394;2022-12-24T08:31:35;5.37;;;2.27;;
15848;SDS011;8024;48.708;9.394;2022-12-24T08:34:03;6.53;;;1.90;;
15848;SDS011;8024;48.708;9.394;2022-12-24T08:36:30;6.50;;;3.40;;
15848;SDS011;8024;48.708;9.394;2022-12-24T08:38:59;11.90;;;6.23;;
15848;SDS011;8024;48.708;9.394;2022-12-24T08:41:27;9.33;;;2.80;;
15848;SDS011;8024;48.708;9.394;2022-12-24T08:43:54;4.87;;;1.97;;
15848;SDS011;8024;48.708;9.394;2022-12-24T08:46:22;4.60;;;3.00;;
15848;SDS011;8024;48.708;9.394;2022-12-24T08:48:49;9.83;;;4.50;;
15848;SDS011;8024;48.708;9.394;2022-12-24T08:51:16;7.60;;;3.00;;
15848;SDS011;8024;48.708;9.394;2022-12-24T08:53:43;5.63;;;2.30;;
15848;SDS011;8024;48.708;9.394;2022-12-24T08:56:12;8.30;;;1.80;;
15848;SDS011;8024;48.708;9.394;2022-12-24T08:58:39;4.73;;;2.50;;
15848;SDS011;8024;48.708;9.394;2022-12-24T09:01:10;7.03;;;1.70;;
15848;SDS011;8024;48.708;9.394;2022-12-24T09:03:38;4.47;;;1.97;;
15848;SDS011;8024;48.708;9.394;2022-12-24T09:06:06;5.60;;;2.17;;
15848;SDS011;8024;48.708;9.394;2022-12-24T09:08:34;3.63;;;1.80;;
15848;SDS011;8024;48.708;9.394;2022-12-24T09:11:02;7.83;;;1.73;;
15848;SDS011;8024;48.708;9.394;2022-12-24T09:13:32;8.77;;;1.77;;
15848;SDS011;8024;48.708;9.394;2022-12-24T09:15:59;4.87;;;1.67;;
15848;SDS011;8024;48.708;9.394;2022-12-24T09:18:26;6.33;;;1.60;;
15848;SDS011;8024;48.708;9.394;2022-12-24T09:20:57;4.20;;;1.47;;
15848;SDS011;8024;48.708;9.394;2022-12-24T09:23:25;3.33;;;1.63;;
15848;SDS011;8024;48.708;9.394;2022-12-24T09:25:52;7.97;;;1.80;;
15848;SDS011;8024;48.708;9.394;2022-12-24T09:28:19;7.57;;;1.77;;
15848;SDS011;8024;48.708;9.394;2022-12-24T09:30:55;4.53;;;1.97;;
15848;SDS011;8024;48.708;9.394;2022-12-24T09:33:23;4.93;;;1.60;;
15848;SDS011;8024;48.708;9.394;2022-12-24T09:35:51;7.10;;;1.37;;
15848;SDS011;8024;48.708;9.394;2022-12-24T09:38:18;8.40;;;1.37;;
15848;SDS011;8024;48.708;9.394;2022-12-24T09:40:45;4.13;;;1.30;;
15848;SDS011;8024;48.708;9.394;2022-12-24T09:43:15;4.73;;;1.43;;
15848;SDS011;8024;48.708;9.394;2022-12-24T09:45:44;6.90;;;1.33;;
15848;SDS011;8024;48.708;9.394;2022-12-24T09:48:20;4.67;;;2.33;;
15848;SDS011;8024;48.708;9.394;2022-12-24T09:50:50;4.77;;;1.60;;
15848;SDS011;8024;48.708;9.394;2022-12-24T09:53:22;3.50;;;1.50;;
15848;SDS011;8024;48.708;9.394;2022-12-24T09:55:55;3.53;;;1.43;;
15848;SDS011;8024;48.708;9.394;2022-12-24T09:58:24;7.63;;;1.60;;
15848;SDS011;8024;48.708;9.394;2022-12-24T10:00:55;4.47;;;1.30;;
15848;SDS011;8024;48.708;9.394;2022-12-24T10:03:24;5.77;;;1.67;;
15848;SDS011;8024;48.708;9.394;2022-12-24T10:05:55;4.57;;;1.20;;
15848;SDS011;8024;48.708;9.394;2022-12-24T10:08:30;8.60;;;3.07;;
15848;SDS011;8024;48.708;9.394;2022-12-24T10:11:05;7.40;;;2.60;;
15848;SDS011;8024;48.708;9.394;2022-12-24T10:13:42;5.47;;;1.60;;
15848;SDS011;8024;48.708;9.394;2022-12-24T10:16:23;8.23;;;2.17;;
15848;SDS011;8024;48.708;9.394;2022-12-24T10:19:00;5.53;;;1.93;;
15848;SDS011;8024;48.708;9.394;2022-12-24T10:21:36;7.37;;;1.90;;
15848;SDS011;8024;48.708;9.394;2022-12-24T10:24:10;8.90;;;1.77;;
15848;SDS011;8024;48.708;9.394;2022-12-24T10:26:43;6.40;;;1.73;;
15848;SDS011;8024;48.708;9.394;2022-12-24T10:29:12;6.87;;;1.80;;
15848;SDS011;8024;48.708;9.394;2022-12-24T10:31:44;10.07;;;1.87;;
15848;SDS011;8024;48.708;9.394;2022-12-24T10:34:18;7.07;;;1.87;;
15848;SDS011;8024;48.708;9.394;2022-12-24T10:36:47;6.33;;;1.90;;
15848;SDS011;8024;48.708;9.394;2022-12-24T10:39:15;9.13;;;2.53;;
15848;SDS011;8024;48.708;9.394;2022-12-24T10:41:45;8.17;;;2.20;;
15848;SDS011;8024;48.708;9.394;2022-12-24T10:44:15;8.03;;;2.23;;
15848;SDS011;8024;48.708;9.394;2022-12-24T10:46:46;5.03;;;2.33;;
15848;SDS011;8024;48.708;9.394;2022-12-24T10:49:15;9.67;;;1.87;;
15848;SDS011;8024;48.708;9.394;2022-12-24T10:51:55;8.33;;;1.57;;
15848;SDS011;8024;48.708;9.394;2022-12-24T10:54:27;5.67;;;1.73;;
15848;SDS011;8024;48.708;9.394;2022-12-24T10:57:03;6.57;;;2.23;;
15848;SDS011;8024;48.708;9.394;2022-12-24T10:59:33;7.10;;;1.53;;
15848;SDS011;8024;48.708;9.394;2022-12-24T11:02:26;10.77;;;3.47;;
15848;SDS011;8024;48.708;9.394;2022-12-24T11:04:57;11.33;;;5.07;;
15848;SDS011;8024;48.708;9.394;2022-12-24T11:07:25;17.60;;;8.00;;
15848;SDS011;8024;48.708;9.394;2022-12-24T11:09:54;17.30;;;9.70;;
15848;SDS011;8024;48.708;9.394;2022-12-24T11:12:24;9.67;;;4.03;;
15848;SDS011;8024;48.708;9.394;2022-12-24T11:14:58;6.83;;;2.90;;
15848;SDS011;8024;48.708;9.394;2022-12-24T11:17:28;5.77;;;1.67;;
15848;SDS011;8024;48.708;9.394;2022-12-24T11:19:56;5.37;;;2.10;;
15848;SDS011;8024;48.708;9.394;2022-12-24T11:22:25;5.60;;;1.77;;
15848;SDS011;8024;48.708;9.394;2022-12-24T11:24:56;6.27;;;1.73;;
15848;SDS011;8024;48.708;9.394;2022-12-24T11:27:29;6.53;;;1.70;;
15848;SDS011;8024;48.708;9.394;2022-12-24T11:30:19;4.63;;;1.40;;
15848;SDS011;8024;48.708;9.394;2022-12-24T11:33:13;4.67;;;1.70;;
15848;SDS011;8024;48.708;9.394;2022-12-24T11:35:47;4.43;;;1.63;;
15848;SDS011;8024;48.708;9.394;2022-12-24T11:38:20;3.27;;;1.67;;
15848;SDS011;8024;48.708;9.394;2022-12-24T11:40:49;4.23;;;1.20;;
15848;SDS011;8024;48.708;9.394;2022-12-24T11:43:24;8.63;;;1.47;;
15848;SDS011;8024;48.708;9.394;2022-12-24T11:46:10;6.73;;;1.63;;
15848;SDS011;8024;48.708;9.394;2022-12-24T11:48:39;5.07;;;1.23;;
15848;SDS011;8024;48.708;9.394;2022-12-24T11:51:17;4.90;;;1.20;;
15848;SDS011;8024;48.708;9.394;2022-12-24T11:53:47;10.60;;;1.50;;
15848;SDS011;8024;48.708;9.394;2022-12-24T11:56:23;4.07;;;1.50;;
15848;SDS011;8024;48.708;9.394;2022-12-24T11:58:58;6.33;;;1.53;;
15848;SDS011;8024;48.708;9.394;2022-12-24T12:01:32;7.50;;;1.97;;
15848;SDS011;8024;48.708;9.394;2022-12-24T12:04:03;10.03;;;1.90;;
15848;SDS011;8024;48.708;9.394;2022-12-24T12:06:38;5.60;;;1.80;;
15848;SDS011;8024;48.708;9.394;2022-12-24T12:09:10;5.57;;;1.47;;
15848;SDS011;8024;48.708;9.394;2022-12-24T12:11:39;9.67;;;1.63;;
15848;SDS011;8024;48.708;9.394;2022-12-24T12:14:08;7.27;;;2.30;;
15848;SDS011;8024;48.708;9.394;2022-12-24T12:16:46;4.87;;;1.60;;
15848;SDS011;8024;48.708;9.394;2022-12-24T12:19:29;5.57;;;1.70;;
15848;SDS011;8024;48.708;9.394;2022-12-24T12:22:03;7.23;;;1.83;;
15848;SDS011;8024;48.708;9.394;2022-12-24T12:24:37;8.77;;;2.63;;
15848;SDS011;8024;48.708;9.394;2022-12-24T12:27:10;7.77;;;2.33;;
15848;SDS011;8024;48.708;9.394;2022-12-24T12:29:44;6.67;;;1.83;;
15848;SDS011;8024;48.708;9.394;2022-12-24T12:32:20;4.67;;;1.63;;
15848;SDS011;8024;48.708;9.394;2022-12-24T12:35:02;5.87;;;1.67;;
15848;SDS011;8024;48.708;9.394;2022-12-24T12:37:41;8.17;;;2.07;;
15848;SDS011;8024;48.708;9.394;2022-12-24T12:40:11;10.87;;;3.53;;
15848;SDS011;8024;48.708;9.394;2022-12-24T12:42:41;6.27;;;3.30;;
15848;SDS011;8024;48.708;9.394;2022-12-24T12:45:35;6.13;;;1.80;;
15848;SDS011;8024;48.708;9.394;2022-12-24T12:48:19;5.73;;;2.50;;
15848;SDS011;8024;48.708;9.394;2022-12-24T12:51:21;9.50;;;2.37;;
15848;SDS011;8024;48.708;9.394;2022-12-24T12:54:01;6.37;;;1.73;;
15848;SDS011;8024;48.708;9.394;2022-12-24T12:56:45;6.53;;;1.87;;
15848;SDS011;8024;48.708;9.394;2022-12-24T12:59:17;4.33;;;1.23;;
15848;SDS011;8024;48.708;9.394;2022-12-24T13:01:49;5.37;;;1.43;;
15848;SDS011;8024;48.708;9.394;2022-12-24T13:07:32;5.77;;;1.03;;
15848;SDS011;8024;48.708;9.394;2022-12-24T13:10:35;7.63;;;1.70;;
15848;SDS011;8024;48.708;9.394;2022-12-24T13:13:27;4.10;;;1.60;;
15848;SDS011;8024;48.708;9.394;2022-12-24T13:16:12;8.00;;;2.00;;
15848;SDS011;8024;48.708;9.394;2022-12-24T13:18:59;8.17;;;1.90;;
15848;SDS011;8024;48.708;9.394;2022-12-24T13:21:33;6.40;;;1.50;;
15848;SDS011;8024;48.708;9.394;2022-12-24T13:24:03;5.87;;;1.70;;
15848;SDS011;8024;48.708;9.394;2022-12-24T13:26:33;6.20;;;1.77;;
15848;SDS011;8024;48.708;9.394;2022-12-24T13:35:28;3.73;;;1.20;;
15848;SDS011;8024;48.708;9.394;2022-12-24T13:38:30;5.87;;;1.23;;
15848;SDS011;8024;48.708;9.394;2022-12-24T13:44:15;8.90;;;1.53;;
15848;SDS011;8024;48.708;9.394;2022-12-24T13:46:48;3.70;;;1.37;;
15848;SDS011;8024;48.708;9.394;2022-12-24T13:49:27;7.37;;;1.27;;
15848;SDS011;8024;48.708;9.394;2022-12-24T13:52:15;2.83;;;1.40;;
15848;SDS011;8024;48.708;9.394;2022-12-24T13:54:59;7.90;;;1.27;;
15848;SDS011;8024;48.708;9.394;2022-12-24T13:57:42;7.37;;;1.60;;
15848;SDS011;8024;48.708;9.394;2022-12-24T14:00:26;3.33;;;0.97;;
15848;SDS011;8024;48.708;9.394;2022-12-24T14:02:58;4.30;;;1.40;;
15848;SDS011;8024;48.708;9.394;2022-12-24T14:05:29;9.70;;;1.70;;
15848;SDS011;8024;48.708;9.394;2022-12-24T14:07:59;7.50;;;1.50;;
15848;SDS011;8024;48.708;9.394;2022-12-24T14:10:30;5.87;;;1.13;;
15848;SDS011;8024;48.708;9.394;2022-12-24T14:13:03;6.43;;;1.27;;
15848;SDS011;8024;48.708;9.394;2022-12-24T14:15:44;4.57;;;1.20;;
15848;SDS011;8024;48.708;9.394;2022-12-24T14:18:26;4.60;;;1.37;;
15848;SDS011;8024;48.708;9.394;2022-12-24T14:20:56;6.60;;;1.23;;
15848;SDS011;8024;48.708;9.394;2022-12-24T14:23:28;5.10;;;1.43;;
15848;SDS011;8024;48.708;9.394;2022-12-24T14:26:08;5.70;;;1.17;;
15848;SDS011;8024;48.708;9.394;2022-12-24T14:28:42;7.87;;;1.43;;
15848;SDS011;8024;48.708;9.394;2022-12-24T14:31:13;4.47;;;1.27;;
15848;SDS011;8024;48.708;9.394;2022-12-24T14:33:42;6.43;;;1.90;;
15848;SDS011;8024;48.708;9.394;2022-12-24T14:36:10;4.90;;;1.50;;
15848;SDS011;8024;48.708;9.394;2022-12-24T14:38:40;7.93;;;1.70;;
15848;SDS011;8024;48.708;9.394;2022-12-24T14:41:16;7.60;;;1.53;;
15848;SDS011;8024;48.708;9.394;2022-12-24T14:43:55;5.63;;;1.47;;
15848;SDS011;8024;48.708;9.394;2022-12-24T14:46:32;4.23;;;1.50;;
15848;SDS011;8024;48.708;9.394;2022-12-24T14:49:10;6.93;;;1.57;;
15848;SDS011;8024;48.708;9.394;2022-12-24T14:51:45;5.10;;;1.70;;
15848;SDS011;8024;48.708;9.394;2022-12-24T14:54:27;4.80;;;1.50;;
15848;SDS011;8024;48.708;9.394;2022-12-24T14:57:17;7.73;;;1.87;;
15848;SDS011;8024;48.708;9.394;2022-12-24T14:59:49;6.40;;;1.60;;
15848;SDS011;8024;48.708;9.394;2022-12-24T15:05:06;6.97;;;1.50;;
15848;SDS011;8024;48.708;9.394;2022-12-24T15:07:37;6.60;;;1.63;;
15848;SDS011;8024;48.708;9.394;2022-12-24T15:10:06;6.57;;;1.67;;
15848;SDS011;8024;48.708;9.394;2022-12-24T15:12:51;3.93;;;1.50;;
15848;SDS011;8024;48.708;9.394;2022-12-24T15:15:20;4.53;;;1.33;;
15848;SDS011;8024;48.708;9.394;2022-12-24T15:17:48;4.07;;;1.73;;
15848;SDS011;8024;48.708;9.394;2022-12-24T15:20:16;3.90;;;1.70;;
15848;SDS011;8024;48.708;9.394;2022-12-24T15:22:46;6.80;;;1.83;;
15848;SDS011;8024;48.708;9.394;2022-12-24T15:25:18;5.93;;;1.57;;
15848;SDS011;8024;48.708;9.394;2022-12-24T15:27:46;2.30;;;1.10;;
15848;SDS011;8024;48.708;9.394;2022-12-24T15:30:14;3.20;;;1.23;;
15848;SDS011;8024;48.708;9.394;2022-12-24T15:32:44;4.90;;;1.93;;
15848;SDS011;8024;48.708;9.394;2022-12-24T15:38:23;5.57;;;1.63;;
15848;SDS011;8024;48.708;9.394;2022-12-24T15:40:54;5.57;;;2.70;;
15848;SDS011;8024;48.708;9.394;2022-12-24T15:43:21;6.47;;;2.07;;